Time;durP1;ratioP1;P1;durP2;ratioP2;P2;SDS_P1;SDS_P2;PMS_P1;PMS_P2;Temp;Humidity;BMP_temperature;BMP_pressure;BME280_temperature;BME280_humidity;BME280_pressure;Samples;Min_cycle;Max_cycle;Signal;HPM_P1;HPM_P2
2021/03/22 00:01:29;;;;;;;3.13;2.83;;;6.40;99.90;;;;;;5089214;28;20111;-71
2021/03/22 00:03:55;;;;;;;3.65;2.78;;;6.30;99.90;;;;;;5090981;28;20099;-71
2021/03/22 00:06:21;;;;;;;5.97;2.38;;;6.40;99.90;;;;;;5087036;28;20073;-71
2021/03/22 00:08:47;;;;;;;4.03;2.50;;;6.40;99.90;;;;;;5090383;28;20017;-72
2021/03/22 00:11:13;;;;;;;4.38;3.17;;;6.40;99.90;;;;;;5090590;28;20013;-71
2021/03/22 00:13:39;;;;;;;4.95;2.75;;;6.30;99.90;;;;;;5094155;28;20035;-70
2021/03/22 00:16:08;;;;;;;5.13;2.08;;;6.30;99.90;;;;;;5093544;28;20028;-70
2021/03/22 00:18:37;;;;;;;4.30;2.25;;;6.30;99.90;;;;;;5093967;28;20035;-71
2021/03/22 00:21:04;;;;;;;5.95;3.00;;;6.30;99.90;;;;;;5091133;28;20028;-71
2021/03/22 00:23:30;;;;;;;6.13;2.72;;;6.30;99.90;;;;;;5094085;28;20057;-70
2021/03/22 00:25:56;;;;;;;3.20;2.03;;;6.30;99.90;;;;;;5092673;28;20520;-70
2021/03/22 00:28:23;;;;;;;5.40;2.30;;;6.30;99.90;;;;;;5094710;28;20016;-70
2021/03/22 00:30:50;;;;;;;2.75;2.55;;;6.30;99.90;;;;;;5091743;28;20430;-70
2021/03/22 00:33:18;;;;;;;2.50;1.70;;;6.30;99.90;;;;;;5093113;28;20400;-70
2021/03/22 00:35:44;;;;;;;2.47;2.20;;;6.20;99.90;;;;;;5094460;28;20050;-71
2021/03/22 00:38:12;;;;;;;4.78;2.20;;;6.30;99.90;;;;;;5094936;28;20024;-70
2021/03/22 00:40:41;;;;;;;3.60;2.15;;;6.20;99.90;;;;;;5092868;28;20089;-73
2021/03/22 00:43:07;;;;;;;5.20;2.70;;;6.20;99.90;;;;;;5092237;28;20028;-71
2021/03/22 00:45:33;;;;;;;4.88;2.78;;;6.20;99.90;;;;;;5092271;28;20026;-70
2021/03/22 00:47:59;;;;;;;3.17;2.55;;;6.20;99.90;;;;;;5094265;28;20095;-70
2021/03/22 00:50:28;;;;;;;3.53;2.60;;;6.20;99.90;;;;;;5092127;28;20024;-72
2021/03/22 00:52:54;;;;;;;3.03;2.55;;;6.20;99.90;;;;;;5094739;28;20023;-71
2021/03/22 00:55:20;;;;;;;3.58;2.45;;;6.10;99.90;;;;;;5091737;28;20107;-71
2021/03/22 00:57:46;;;;;;;4.07;3.20;;;6.10;99.90;;;;;;5094944;28;20028;-70
2021/03/22 01:00:26;;;;;;;2.47;2.28;;;6.20;99.90;;;;;;5093916;28;20054;-70
2021/03/22 01:02:53;;;;;;;3.88;2.72;;;6.10;99.90;;;;;;5085966;28;20159;-71
2021/03/22 01:05:19;;;;;;;2.95;2.60;;;6.10;99.90;;;;;;5094667;28;20024;-71
2021/03/22 01:07:45;;;;;;;3.30;2.72;;;6.10;99.90;;;;;;5094962;28;20012;-71
2021/03/22 01:10:33;;;;;;;3.22;2.20;;;6.10;99.90;;;;;;5086272;28;20103;-70
2021/03/22 01:13:01;;;;;;;2.35;2.15;;;6.10;99.90;;;;;;5093718;28;20465;-71
2021/03/22 01:15:27;;;;;;;2.13;1.95;;;6.10;99.90;;;;;;5093524;28;20032;-71
2021/03/22 01:17:53;;;;;;;3.45;2.97;;;6.10;99.90;;;;;;5094213;28;20020;-71
2021/03/22 01:20:26;;;;;;;2.65;2.45;;;6.10;99.90;;;;;;5078914;28;20020;-70
2021/03/22 01:22:52;;;;;;;2.38;1.90;;;6.00;99.90;;;;;;5086315;28;20042;-70
2021/03/22 01:25:18;;;;;;;2.00;1.80;;;6.00;99.90;;;;;;5082830;28;20483;-72
2021/03/22 01:27:43;;;;;;;2.92;2.25;;;6.00;99.90;;;;;;5094643;28;20024;-71
2021/03/22 01:30:22;;;;;;;3.97;2.80;;;6.00;99.90;;;;;;5093766;28;20411;-71
2021/03/22 01:32:48;;;;;;;4.65;4.18;;;6.00;99.90;;;;;;5091516;28;20020;-71
2021/03/22 01:35:15;;;;;;;5.90;3.40;;;6.00;99.90;;;;;;5085600;28;20028;-71
2021/03/22 01:37:41;;;;;;;2.33;2.13;;;6.00;99.90;;;;;;5094119;28;20020;-70
2021/03/22 01:40:40;;;;;;;3.92;2.70;;;5.90;99.90;;;;;;5089833;28;20073;-70
2021/03/22 01:43:20;;;;;;;5.07;2.78;;;5.90;99.90;;;;;;5095812;28;20036;-70
2021/03/22 01:45:45;;;;;;;2.60;2.35;;;5.90;99.90;;;;;;5094161;28;20041;-70
2021/03/22 01:48:11;;;;;;;4.57;2.95;;;5.80;99.90;;;;;;5086695;28;20383;-68
2021/03/22 01:50:37;;;;;;;4.10;2.70;;;5.80;99.90;;;;;;5090254;28;20364;-70
2021/03/22 01:53:03;;;;;;;4.60;2.05;;;5.80;99.90;;;;;;5093171;28;20032;-71
2021/03/22 01:55:29;;;;;;;3.33;2.95;;;5.70;99.90;;;;;;5094084;28;20080;-71
2021/03/22 01:57:55;;;;;;;2.88;2.55;;;5.70;99.90;;;;;;5096904;28;20028;-71
2021/03/22 02:00:29;;;;;;;4.35;3.78;;;5.70;99.90;;;;;;5094177;28;20047;-71
2021/03/22 02:03:13;;;;;;;3.55;2.72;;;5.70;99.90;;;;;;5092929;28;20032;-71
2021/03/22 02:05:46;;;;;;;3.35;2.83;;;5.70;99.90;;;;;;5088988;28;20529;-70
2021/03/22 02:08:20;;;;;;;2.65;2.42;;;5.70;99.90;;;;;;5090976;28;20031;-70
2021/03/22 02:10:46;;;;;;;4.32;2.38;;;5.70;99.90;;;;;;5085091;28;20414;-71
2021/03/22 02:13:15;;;;;;;2.88;2.60;;;5.80;99.90;;;;;;5092465;28;20753;-71
2021/03/22 02:15:43;;;;;;;4.32;2.83;;;5.80;99.90;;;;;;5086471;28;20108;-71
2021/03/22 02:18:20;;;;;;;4.35;3.05;;;5.80;99.90;;;;;;5090198;28;20016;-70
2021/03/22 02:21:23;;;;;;;4.63;3.33;;;5.80;99.90;;;;;;5090664;28;20024;-71
2021/03/22 02:23:58;;;;;;;2.65;2.30;;;5.80;99.90;;;;;;5090942;28;20024;-70
2021/03/22 02:26:45;;;;;;;2.85;2.65;;;5.90;99.90;;;;;;5088020;28;20028;-70
2021/03/22 02:29:23;;;;;;;3.33;2.88;;;5.90;99.90;;;;;;5084324;28;20028;-72
2021/03/22 02:32:07;;;;;;;4.63;2.88;;;5.90;99.90;;;;;;5092980;28;20412;-71
2021/03/22 02:34:49;;;;;;;4.65;3.78;;;5.90;99.90;;;;;;5092110;28;20047;-70
2021/03/22 02:37:23;;;;;;;2.63;2.42;;;5.90;99.90;;;;;;5092237;28;20020;-70
2021/03/22 02:39:55;;;;;;;3.00;2.63;;;5.90;99.90;;;;;;5089407;28;20562;-70
2021/03/22 02:42:22;;;;;;;4.97;2.70;;;5.90;99.90;;;;;;5091609;28;20036;-70
2021/03/22 02:44:48;;;;;;;3.17;2.83;;;5.80;99.90;;;;;;5089829;28;20028;-71
2021/03/22 02:47:26;;;;;;;5.43;2.80;;;5.80;99.90;;;;;;5092519;28;20031;-72
2021/03/22 02:49:54;;;;;;;2.85;2.15;;;5.70;99.90;;;;;;5088695;28;20387;-69
2021/03/22 02:52:33;;;;;;;2.97;2.58;;;5.80;99.90;;;;;;5087536;28;20024;-70
2021/03/22 02:55:35;;;;;;;4.05;3.13;;;5.80;99.90;;;;;;5089514;28;20451;-71
2021/03/22 02:58:12;;;;;;;3.58;2.03;;;5.80;99.90;;;;;;5092147;28;20028;-70
2021/03/22 03:01:00;;;;;;;3.88;3.33;;;5.80;99.90;;;;;;5090447;28;20032;-70
2021/03/22 03:03:27;;;;;;;3.60;2.55;;;5.70;99.90;;;;;;5086619;28;20024;-70
2021/03/22 03:05:54;;;;;;;3.70;3.20;;;5.70;99.90;;;;;;5091808;28;20573;-71
2021/03/22 03:08:40;;;;;;;2.15;1.95;;;5.70;99.90;;;;;;5091094;28;20042;-72
2021/03/22 03:11:07;;;;;;;6.10;3.05;;;5.70;99.90;;;;;;5092292;28;20028;-72
2021/03/22 03:13:34;;;;;;;5.43;3.95;;;5.60;99.90;;;;;;5090612;28;20111;-71
2021/03/22 03:16:00;;;;;;;9.68;2.75;;;5.70;99.90;;;;;;5092121;28;20537;-70
2021/03/22 03:18:26;;;;;;;3.38;2.60;;;5.70;99.90;;;;;;5092360;28;20043;-72
2021/03/22 03:20:52;;;;;;;4.05;3.65;;;5.70;99.90;;;;;;5092028;28;20036;-70
2021/03/22 03:23:18;;;;;;;3.60;2.92;;;5.70;99.90;;;;;;5085953;28;20028;-71
2021/03/22 03:25:44;;;;;;;4.15;2.35;;;5.80;99.90;;;;;;5090089;28;20058;-71
2021/03/22 03:28:12;;;;;;;4.47;3.47;;;5.80;99.90;;;;;;5092786;28;20146;-72
2021/03/22 03:30:39;;;;;;;2.47;1.98;;;5.90;99.90;;;;;;5091467;28;20031;-70
2021/03/22 03:33:12;;;;;;;2.22;2.05;;;5.90;99.90;;;;;;5083970;28;20028;-70
2021/03/22 03:35:40;;;;;;;4.97;2.53;;;5.90;99.90;;;;;;5089907;28;20487;-70
2021/03/22 03:38:07;;;;;;;3.08;2.80;;;5.90;99.90;;;;;;5089881;28;20032;-70
2021/03/22 03:40:42;;;;;;;4.55;2.33;;;5.80;99.90;;;;;;5088353;28;20415;-71
2021/03/22 03:43:09;;;;;;;2.72;2.35;;;5.90;99.90;;;;;;5088255;28;20078;-70
2021/03/22 03:45:38;;;;;;;2.22;2.03;;;5.90;99.90;;;;;;5089615;28;20056;-71
2021/03/22 03:48:06;;;;;;;6.68;3.35;;;5.80;99.90;;;;;;5093711;28;20027;-70
2021/03/22 03:50:32;;;;;;;5.53;3.15;;;5.80;99.90;;;;;;5093309;28;20077;-71
2021/03/22 03:52:58;;;;;;;4.65;2.67;;;5.80;99.90;;;;;;5092010;28;20345;-71
2021/03/22 03:55:27;;;;;;;2.55;2.15;;;5.80;99.90;;;;;;5086003;28;20023;-70
2021/03/22 03:57:53;;;;;;;3.80;2.85;;;5.70;99.90;;;;;;5094120;28;20035;-71
2021/03/22 04:00:30;;;;;;;3.33;2.35;;;5.70;99.90;;;;;;5089282;28;20035;-71
2021/03/22 04:02:57;;;;;;;3.75;2.95;;;5.60;99.90;;;;;;5094487;28;20120;-69
2021/03/22 04:05:26;;;;;;;3.00;2.70;;;5.60;99.90;;;;;;5074345;28;20483;-70
2021/03/22 04:07:52;;;;;;;4.22;2.95;;;5.60;99.90;;;;;;5092011;28;20024;-70
2021/03/22 04:10:18;;;;;;;2.67;2.10;;;5.60;99.90;;;;;;5090141;28;20052;-70
2021/03/22 04:12:44;;;;;;;3.03;2.78;;;5.60;99.90;;;;;;5090751;28;20446;-71
2021/03/22 04:15:14;;;;;;;2.80;1.95;;;5.60;99.90;;;;;;5092355;28;20036;-71
2021/03/22 04:17:41;;;;;;;4.65;2.58;;;5.60;99.90;;;;;;5094688;28;20104;-70
2021/03/22 04:20:07;;;;;;;4.90;2.83;;;5.60;99.90;;;;;;5091652;28;20693;-71
2021/03/22 04:22:33;;;;;;;4.82;3.22;;;5.70;99.90;;;;;;5095319;28;20039;-71
2021/03/22 04:24:59;;;;;;;3.72;3.03;;;5.70;99.90;;;;;;5096085;28;20114;-71
2021/03/22 04:27:24;;;;;;;5.18;2.92;;;5.70;99.90;;;;;;5086750;28;20035;-72
2021/03/22 04:29:50;;;;;;;2.92;2.10;;;5.70;99.90;;;;;;5092890;28;20028;-70
2021/03/22 04:32:16;;;;;;;8.35;2.70;;;5.70;99.90;;;;;;5086909;28;20031;-71
2021/03/22 04:34:41;;;;;;;4.00;2.75;;;5.70;99.90;;;;;;5086858;28;20103;-71
2021/03/22 04:37:13;;;;;;;4.20;2.25;;;5.60;99.90;;;;;;5093148;28;20066;-70
2021/03/22 04:39:39;;;;;;;3.55;3.17;;;5.60;99.90;;;;;;5089656;28;20410;-71
2021/03/22 04:42:05;;;;;;;6.28;2.97;;;5.50;99.90;;;;;;5090077;28;20055;-72
2021/03/22 04:44:31;;;;;;;5.63;3.13;;;5.40;99.90;;;;;;5086954;28;20027;-71
2021/03/22 04:46:56;;;;;;;4.40;2.85;;;5.30;99.90;;;;;;5093826;28;20020;-71
2021/03/22 04:49:22;;;;;;;6.18;3.97;;;5.20;99.90;;;;;;5094268;28;20407;-70
2021/03/22 04:51:48;;;;;;;3.92;2.42;;;5.10;99.90;;;;;;5090968;28;20012;-71
2021/03/22 04:54:14;;;;;;;3.83;2.78;;;5.10;99.90;;;;;;5092723;28;20028;-70
2021/03/22 04:56:40;;;;;;;4.35;2.13;;;5.10;99.90;;;;;;5093379;28;20103;-70
2021/03/22 04:59:05;;;;;;;8.70;2.92;;;5.10;99.90;;;;;;5089334;28;20415;-70
2021/03/22 05:01:31;;;;;;;2.92;2.63;;;5.20;99.90;;;;;;5091662;28;20035;-73
2021/03/22 05:03:57;;;;;;;5.72;2.67;;;5.10;99.90;;;;;;5093970;28;20094;-71
2021/03/22 05:06:22;;;;;;;2.92;2.53;;;5.10;99.90;;;;;;5093396;28;20035;-70
2021/03/22 05:08:48;;;;;;;6.15;4.47;;;5.00;99.90;;;;;;5093840;28;20016;-70
2021/03/22 05:11:17;;;;;;;3.30;2.63;;;5.00;99.90;;;;;;5092637;28;20024;-70
2021/03/22 05:13:45;;;;;;;5.35;3.78;;;4.90;99.90;;;;;;5094059;28;20024;-71
2021/03/22 05:16:13;;;;;;;11.45;4.95;;;4.90;99.90;;;;;;5093331;28;20039;-70
2021/03/22 05:18:39;;;;;;;5.88;3.72;;;4.90;99.90;;;;;;5088913;28;20016;-71
2021/03/22 05:21:07;;;;;;;8.10;5.40;;;5.00;99.90;;;;;;5090255;28;20028;-71
2021/03/22 05:23:35;;;;;;;5.45;4.32;;;5.00;99.90;;;;;;5094314;28;20024;-69
2021/03/22 05:26:01;;;;;;;6.10;3.95;;;5.00;99.90;;;;;;5090331;28;20074;-70
2021/03/22 05:28:29;;;;;;;5.55;3.88;;;5.00;99.90;;;;;;5093132;28;20048;-70
2021/03/22 05:30:55;;;;;;;4.93;2.85;;;5.00;99.90;;;;;;5090210;28;20094;-72
2021/03/22 05:33:22;;;;;;;4.60;3.40;;;5.10;99.90;;;;;;5087407;28;20423;-71
2021/03/22 05:35:50;;;;;;;4.55;3.22;;;5.10;99.90;;;;;;5081706;28;20479;-70
2021/03/22 05:38:16;;;;;;;5.45;3.15;;;5.20;99.90;;;;;;5093302;28;20441;-71
2021/03/22 05:40:46;;;;;;;5.32;4.15;;;5.30;99.90;;;;;;5089516;28;20028;-72
2021/03/22 05:43:20;;;;;;;6.00;5.10;;;5.40;99.90;;;;;;5092000;28;20016;-70
2021/03/22 05:46:23;;;;;;;4.82;3.58;;;5.60;99.90;;;;;;5092028;28;20062;-72
2021/03/22 05:48:57;;;;;;;6.50;4.95;;;5.50;99.90;;;;;;5090655;28;20024;-71
2021/03/22 05:51:53;;;;;;;6.00;4.05;;;5.50;99.90;;;;;;5090759;28;20024;-72
2021/03/22 05:54:21;;;;;;;4.88;3.65;;;5.60;99.90;;;;;;5090227;28;20043;-70
2021/03/22 05:57:00;;;;;;;6.50;3.50;;;5.60;99.90;;;;;;5092169;28;20051;-72
2021/03/22 05:59:53;;;;;;;5.03;3.92;;;5.60;99.90;;;;;;5073160;28;20080;-72
2021/03/22 06:02:39;;;;;;;6.22;3.85;;;5.60;99.90;;;;;;5090284;28;20031;-71
2021/03/22 06:05:14;;;;;;;7.75;4.22;;;5.60;99.90;;;;;;5091327;28;20036;-70
2021/03/22 06:07:49;;;;;;;12.25;4.70;;;5.70;99.90;;;;;;5088300;28;20020;-71
2021/03/22 06:10:18;;;;;;;7.97;4.68;;;5.80;99.90;;;;;;5091514;28;20031;-70
2021/03/22 06:12:55;;;;;;;12.98;4.80;;;5.70;99.90;;;;;;5092237;28;20023;-71
2021/03/22 06:15:34;;;;;;;9.05;5.35;;;5.70;99.90;;;;;;5079639;28;20028;-71
2021/03/22 06:18:11;;;;;;;9.60;4.93;;;5.70;99.90;;;;;;5084320;28;20043;-71
2021/03/22 06:20:39;;;;;;;3.92;3.20;;;5.60;99.90;;;;;;5086803;28;20028;-71
2021/03/22 06:23:34;;;;;;;6.68;4.55;;;5.70;99.90;;;;;;5093504;28;20073;-72
2021/03/22 06:26:00;;;;;;;7.90;4.22;;;5.80;99.90;;;;;;5092795;28;20028;-71
2021/03/22 06:28:32;;;;;;;7.15;4.38;;;5.80;99.90;;;;;;5093014;28;20027;-71
2021/03/22 06:31:07;;;;;;;7.50;4.13;;;5.90;99.90;;;;;;5082822;28;20027;-70
2021/03/22 06:33:47;;;;;;;7.05;4.43;;;5.90;99.90;;;;;;5092106;28;20487;-71
2021/03/22 06:36:18;;;;;;;7.38;3.97;;;6.00;99.90;;;;;;5088811;28;20111;-72
2021/03/22 06:38:50;;;;;;;7.85;4.40;;;6.10;99.90;;;;;;5093649;28;20028;-71
2021/03/22 06:41:37;;;;;;;6.57;3.03;;;6.10;99.90;;;;;;5088962;28;20384;-71
2021/03/22 06:44:26;;;;;;;5.82;4.45;;;6.20;99.90;;;;;;5083024;28;20036;-71
2021/03/22 06:46:53;;;;;;;8.68;4.13;;;6.30;99.90;;;;;;5091194;28;20046;-70
2021/03/22 06:49:29;;;;;;;7.03;4.15;;;6.40;99.90;;;;;;5093095;28;20016;-72
2021/03/22 06:52:03;;;;;;;4.90;3.28;;;6.60;99.90;;;;;;5093064;28;20028;-71
2021/03/22 06:54:40;;;;;;;4.13;3.30;;;6.70;99.90;;;;;;5093666;28;20020;-72
2021/03/22 06:57:10;;;;;;;8.57;3.10;;;6.70;99.90;;;;;;5092234;28;20095;-71
2021/03/22 06:59:36;;;;;;;3.25;2.85;;;6.80;99.90;;;;;;5091158;28;20681;-71
2021/03/22 07:02:19;;;;;;;6.63;3.05;;;7.00;99.90;;;;;;5091719;28;20062;-72
2021/03/22 07:04:45;;;;;;;7.93;3.40;;;7.10;99.90;;;;;;5087920;28;20020;-72
2021/03/22 07:07:14;;;;;;;5.22;2.95;;;7.30;99.90;;;;;;5093165;28;20494;-71
2021/03/22 07:09:54;;;;;;;6.55;2.92;;;7.40;99.90;;;;;;5092959;28;20095;-71
2021/03/22 07:12:36;;;;;;;5.22;3.30;;;7.50;99.90;;;;;;5088671;28;20017;-72
2021/03/22 07:15:33;;;;;;;5.60;3.30;;;7.60;99.90;;;;;;5092544;28;20054;-71
2021/03/22 07:18:12;;;;;;;11.23;4.53;;;7.70;99.90;;;;;;5097057;28;20027;-71
2021/03/22 07:20:40;;;;;;;6.10;3.53;;;7.80;99.90;;;;;;5093096;28;20028;-72
2021/03/22 07:23:25;;;;;;;8.60;3.10;;;7.90;99.90;;;;;;5093585;28;20035;-72
2021/03/22 07:26:32;;;;;;;8.52;4.13;;;8.10;99.90;;;;;;5094044;28;20020;-70
2021/03/22 07:29:21;;;;;;;14.98;6.40;;;8.20;99.90;;;;;;5075454;28;20047;-70
2021/03/22 07:31:53;;;;;;;12.93;4.38;;;8.20;99.90;;;;;;5097575;28;20085;-70
2021/03/22 07:34:36;;;;;;;8.90;3.38;;;8.30;99.90;;;;;;5102203;28;20028;-72
2021/03/22 07:37:16;;;;;;;8.23;3.95;;;8.20;99.90;;;;;;5099850;28;20041;-72
2021/03/22 07:39:47;;;;;;;7.25;3.97;;;8.30;99.90;;;;;;5096604;28;20490;-72
2021/03/22 07:42:22;;;;;;;6.05;4.30;;;8.50;99.90;;;;;;5096242;28;20050;-72
2021/03/22 07:44:57;;;;;;;8.48;4.68;;;8.60;99.90;;;;;;5094560;28;20024;-71
2021/03/22 07:47:41;;;;;;;7.13;5.00;;;8.60;99.90;;;;;;5095800;28;20046;-72
2021/03/22 07:50:29;;;;;;;9.82;5.95;;;8.70;99.90;;;;;;5094991;28;20551;-71
2021/03/22 07:53:21;;;;;;;13.90;7.85;;;8.80;99.90;;;;;;5093302;28;20016;-71
2021/03/22 07:55:55;;;;;;;15.63;6.07;;;8.90;99.90;;;;;;5087586;28;20040;-72
2021/03/22 07:59:06;;;;;;;15.15;7.60;;;9.00;99.90;;;;;;5085705;28;20293;-71
2021/03/22 08:01:43;;;;;;;9.75;6.80;;;8.90;99.90;;;;;;5082067;28;20085;-70
2021/03/22 08:04:31;;;;;;;17.63;8.77;;;8.90;99.90;;;;;;5093125;28;20024;-69
2021/03/22 08:07:41;;;;;;;12.20;8.55;;;8.80;99.00;;;;;;5078472;28;20020;-70
2021/03/22 08:10:26;;;;;;;15.27;10.52;;;8.70;98.80;;;;;;5090662;28;20040;-70
2021/03/22 08:13:33;;;;;;;11.07;9.75;;;8.70;99.10;;;;;;5088910;28;20484;-69
2021/03/22 08:16:18;;;;;;;13.95;9.85;;;8.70;99.80;;;;;;5092939;28;20027;-70
2021/03/22 08:18:54;;;;;;;10.77;9.15;;;8.80;99.90;;;;;;5087562;28;20111;-69
2021/03/22 08:21:37;;;;;;;12.15;9.80;;;8.90;99.90;;;;;;5095033;28;20028;-69
2021/03/22 08:24:15;;;;;;;11.63;10.43;;;8.80;99.90;;;;;;5093936;28;20024;-72
2021/03/22 08:27:11;;;;;;;14.38;10.68;;;8.70;99.90;;;;;;5088768;28;20016;-70
2021/03/22 08:29:52;;;;;;;11.23;9.48;;;8.80;99.90;;;;;;5087011;28;20070;-70
2021/03/22 08:32:36;;;;;;;13.02;9.75;;;8.80;99.90;;;;;;5089316;28;20119;-71
2021/03/22 08:35:25;;;;;;;12.88;10.48;;;8.70;99.90;;;;;;5083865;28;20491;-70
2021/03/22 08:37:59;;;;;;;10.63;9.32;;;8.80;99.90;;;;;;5093359;28;20034;-71
2021/03/22 08:40:48;;;;;;;12.70;9.30;;;8.80;99.90;;;;;;5095178;28;20375;-70
2021/03/22 08:43:47;;;;;;;10.50;8.23;;;8.90;99.90;;;;;;5093486;28;20104;-71
2021/03/22 08:46:29;;;;;;;13.68;8.68;;;8.90;99.90;;;;;;5088905;28;20024;-71
2021/03/22 08:48:56;;;;;;;13.02;9.23;;;8.90;99.90;;;;;;5091326;28;20024;-71
2021/03/22 08:51:32;;;;;;;14.07;10.32;;;9.00;99.90;;;;;;5092515;28;20487;-70
2021/03/22 08:53:59;;;;;;;14.43;9.75;;;9.00;99.90;;;;;;5094334;28;20056;-70
2021/03/22 08:57:19;;;;;;;14.52;9.95;;;9.00;99.90;;;;;;5093420;28;20065;-70
2021/03/22 08:59:45;;;;;;;12.25;10.98;;;8.90;99.90;;;;;;5093183;28;20036;-70
2021/03/22 09:02:26;;;;;;;14.30;10.68;;;9.00;99.50;;;;;;5093149;28;20404;-70
2021/03/22 09:04:54;;;;;;;11.88;10.60;;;9.00;99.70;;;;;;5092546;28;20028;-71
2021/03/22 09:07:26;;;;;;;16.40;10.93;;;8.90;99.60;;;;;;5093962;28;20103;-71
2021/03/22 09:10:13;;;;;;;14.18;11.55;;;8.90;99.90;;;;;;5093986;28;20031;-71
2021/03/22 09:12:45;;;;;;;16.98;10.90;;;8.80;99.90;;;;;;5081594;28;20638;-70
2021/03/22 09:15:32;;;;;;;16.48;10.23;;;8.90;99.90;;;;;;5075841;28;20094;-70
2021/03/22 09:18:01;;;;;;;16.50;13.00;;;8.90;99.90;;;;;;5076387;28;20118;-74
2021/03/22 09:20:28;;;;;;;18.10;12.55;;;8.80;98.50;;;;;;5084269;28;20052;-72
2021/03/22 09:23:04;;;;;;;18.05;12.60;;;8.80;99.60;;;;;;5090731;28;20024;-68
2021/03/22 09:25:53;;;;;;;16.92;11.00;;;8.90;99.20;;;;;;5081670;28;20088;-72
2021/03/22 09:28:25;;;;;;;13.57;12.13;;;8.80;98.00;;;;;;5083589;28;20020;-70
2021/03/22 09:31:13;;;;;;;13.70;11.82;;;8.90;96.30;;;;;;5093030;28;20367;-70
2021/03/22 09:34:00;;;;;;;13.82;12.15;;;9.00;97.40;;;;;;5087326;28;20464;-71
2021/03/22 09:36:32;;;;;;;17.13;12.07;;;9.00;96.90;;;;;;5093563;28;20039;-69
2021/03/22 09:39:21;;;;;;;14.60;11.25;;;8.90;96.90;;;;;;5092258;28;20157;-70
2021/03/22 09:41:59;;;;;;;14.02;11.55;;;8.80;97.30;;;;;;5074710;28;20032;-69
2021/03/22 09:44:31;;;;;;;13.10;11.63;;;8.90;97.80;;;;;;5092562;28;20408;-70
2021/03/22 09:47:19;;;;;;;13.70;12.32;;;8.90;97.40;;;;;;5092334;28;20028;-70
2021/03/22 09:50:08;;;;;;;20.10;12.73;;;9.10;98.00;;;;;;5092979;28;20020;-69
2021/03/22 09:52:39;;;;;;;14.50;12.85;;;9.10;97.80;;;;;;5090670;28;20064;-70
2021/03/22 09:55:26;;;;;;;16.90;12.32;;;9.00;98.40;;;;;;5090833;28;20024;-71
2021/03/22 09:58:15;;;;;;;15.90;12.48;;;9.10;98.10;;;;;;5090611;28;20036;-70
2021/03/22 10:00:41;;;;;;;14.32;10.20;;;9.10;98.00;;;;;;5089307;28;20024;-66
2021/03/22 10:03:34;;;;;;;15.50;10.25;;;9.60;99.90;;;;;;5090920;28;20032;-67
2021/03/22 10:06:04;;;;;;;17.60;11.35;;;10.00;98.50;;;;;;5090117;28;20024;-65
2021/03/22 10:08:35;;;;;;;16.10;12.25;;;10.50;97.60;;;;;;5094439;28;20107;-70
2021/03/22 10:11:20;;;;;;;15.98;13.52;;;10.60;97.50;;;;;;5092767;28;20032;-71
2021/03/22 10:13:49;;;;;;;19.80;13.43;;;10.50;97.00;;;;;;5091456;28;20110;-72
2021/03/22 10:16:26;;;;;;;14.88;13.35;;;10.10;98.20;;;;;;5092450;28;20043;-72
2021/03/22 10:18:58;;;;;;;16.63;14.02;;;10.20;98.90;;;;;;5092264;28;20289;-70
2021/03/22 10:21:38;;;;;;;21.75;16.27;;;10.00;99.00;;;;;;5071025;28;20029;-70
2021/03/22 10:24:13;;;;;;;21.70;14.70;;;10.00;99.30;;;;;;5091388;28;20020;-69
2021/03/22 10:26:41;;;;;;;17.33;14.57;;;10.00;99.50;;;;;;5091986;28;20112;-71
2021/03/22 10:29:25;;;;;;;17.08;13.80;;;10.10;99.30;;;;;;5091530;28;20020;-69
2021/03/22 10:32:11;;;;;;;16.75;13.77;;;10.10;99.90;;;;;;5094494;28;20501;-71
2021/03/22 10:34:42;;;;;;;14.30;12.88;;;9.90;99.90;;;;;;5094805;28;20028;-71
2021/03/22 10:37:26;;;;;;;20.17;12.43;;;9.80;99.80;;;;;;5093163;28;20012;-69
2021/03/22 10:40:03;;;;;;;19.77;13.52;;;9.80;99.90;;;;;;5092729;28;20028;-71
2021/03/22 10:42:34;;;;;;;20.17;13.95;;;10.00;99.90;;;;;;5092638;28;20035;-71
2021/03/22 10:45:00;;;;;;;14.65;13.15;;;10.00;99.90;;;;;;5093190;28;20012;-70
2021/03/22 10:47:29;;;;;;;14.82;13.27;;;10.00;99.90;;;;;;5092260;28;20028;-71
2021/03/22 10:50:28;;;;;;;18.15;14.07;;;9.90;99.90;;;;;;5093705;28;20039;-71
2021/03/22 10:53:16;;;;;;;22.17;14.57;;;10.00;99.90;;;;;;5091814;28;20491;-71
2021/03/22 10:55:44;;;;;;;18.98;14.02;;;10.10;99.90;;;;;;5092064;28;20054;-70
2021/03/22 10:58:33;;;;;;;19.25;14.80;;;10.20;99.90;;;;;;5091573;28;20058;-70
2021/03/22 11:01:02;;;;;;;16.10;14.45;;;10.10;99.90;;;;;;5095528;28;20084;-71
2021/03/22 11:03:30;;;;;;;20.50;13.65;;;10.00;99.90;;;;;;5094618;28;20592;-71
2021/03/22 11:05:57;;;;;;;15.90;14.15;;;10.10;99.70;;;;;;5093494;28;20020;-70
2021/03/22 11:08:35;;;;;;;16.77;14.93;;;10.00;99.90;;;;;;5094580;28;20058;-71
2021/03/22 11:11:18;;;;;;;15.32;13.65;;;10.00;99.90;;;;;;5091370;28;20024;-71
2021/03/22 11:13:46;;;;;;;22.63;14.75;;;10.30;99.90;;;;;;5092488;28;20439;-69
2021/03/22 11:16:26;;;;;;;20.23;14.27;;;10.40;99.90;;;;;;5091742;28;20077;-71
2021/03/22 11:18:53;;;;;;;17.23;14.90;;;10.30;98.00;;;;;;5083780;28;20020;-69
2021/03/22 11:21:21;;;;;;;17.00;15.15;;;10.10;98.50;;;;;;5092090;28;20027;-71
2021/03/22 11:23:47;;;;;;;14.20;12.75;;;9.90;99.40;;;;;;5091441;28;20028;-72
2021/03/22 11:26:29;;;;;;;17.63;14.82;;;9.70;99.40;;;;;;5092670;28;20150;-70
2021/03/22 11:29:13;;;;;;;;;;;9.90;99.80;;;;;;5092541;28;20479;-70
2021/03/22 11:31:41;;;;;;;14.75;13.20;;;10.10;99.90;;;;;;5091821;28;19911;-70
2021/03/22 11:34:27;;;;;;;18.30;16.38;;;10.40;99.50;;;;;;5091574;28;20028;-71
2021/03/22 11:37:24;;;;;;;21.40;16.17;;;10.50;99.90;;;;;;5091715;28;20080;-70
2021/03/22 11:40:00;;;;;;;21.30;16.08;;;10.70;99.90;;;;;;5091588;28;20436;-70
2021/03/22 11:42:32;;;;;;;19.45;17.45;;;10.80;99.90;;;;;;5091683;28;20115;-71
2021/03/22 11:45:04;;;;;;;18.52;15.52;;;10.60;99.90;;;;;;5091637;28;20510;-71
2021/03/22 11:47:38;;;;;;;22.13;17.10;;;10.60;99.90;;;;;;5092892;28;20471;-71
2021/03/22 11:50:27;;;;;;;50.30;32.47;;;10.90;99.90;;;;;;5092882;28;20032;-70
2021/03/22 11:53:07;;;;;;;17.40;15.73;;;11.10;99.90;;;;;;5089973;28;20032;-70
2021/03/22 11:55:35;;;;;;;19.60;14.23;;;11.30;99.90;;;;;;5088009;28;20495;-70
2021/03/22 11:58:02;;;;;;;17.80;16.08;;;11.30;99.50;;;;;;5091968;28;20058;-72
2021/03/22 12:00:31;;;;;;;19.27;15.27;;;11.30;99.10;;;;;;5090766;28;20169;-70
2021/03/22 12:03:06;;;;;;;23.15;15.50;;;11.30;99.10;;;;;;5091393;28;20073;-71
2021/03/22 12:05:36;;;;;;;18.02;14.55;;;11.40;99.40;;;;;;5090713;28;20387;-71
2021/03/22 12:08:36;;;;;;;17.67;15.88;;;11.30;99.60;;;;;;5092099;28;20035;-71
2021/03/22 12:11:14;;;;;;;17.10;15.40;;;11.10;99.90;;;;;;5093410;28;20563;-70
2021/03/22 12:13:40;;;;;;;19.35;17.27;;;11.10;99.90;;;;;;5094996;28;20031;-70
2021/03/22 12:16:10;;;;;;;16.63;15.10;;;11.20;99.90;;;;;;5095168;28;20024;-70
2021/03/22 12:18:39;;;;;;;18.38;16.55;;;11.30;99.90;;;;;;5095806;28;20086;-71
2021/03/22 12:21:12;;;;;;;17.00;15.30;;;11.20;99.90;;;;;;5094788;28;20028;-71
2021/03/22 12:23:37;;;;;;;;;;;11.10;99.90;;;;;;5096596;28;20024;-71
2021/03/22 12:26:03;;;;;;;19.50;17.00;;;11.20;99.90;;;;;;5096095;28;19908;-71
2021/03/22 12:28:29;;;;;;;19.42;17.40;;;11.30;99.90;;;;;;5094659;28;20047;-71
2021/03/22 12:30:55;;;;;;;20.67;16.70;;;11.10;99.90;;;;;;5095043;28;20016;-70
2021/03/22 12:33:25;;;;;;;17.35;15.50;;;11.00;99.90;;;;;;5094834;28;20036;-71
2021/03/22 12:35:51;;;;;;;19.40;17.00;;;10.80;99.90;;;;;;5094509;28;20024;-71
2021/03/22 12:38:17;;;;;;;17.90;16.00;;;10.50;99.90;;;;;;5093456;28;20027;-70
2021/03/22 12:40:43;;;;;;;19.90;17.13;;;10.50;99.90;;;;;;5094140;28;20360;-71
2021/03/22 12:43:26;;;;;;;18.63;15.25;;;10.50;99.90;;;;;;5091975;28;20080;-70
2021/03/22 12:45:52;;;;;;;19.13;15.30;;;10.60;99.90;;;;;;5093415;28;20048;-72
2021/03/22 12:48:18;;;;;;;19.15;17.35;;;10.70;99.90;;;;;;5094564;28;20372;-71
2021/03/22 12:50:44;;;;;;;18.63;16.45;;;10.80;99.90;;;;;;5094338;28;20060;-71
2021/03/22 12:53:13;;;;;;;22.92;18.90;;;10.90;99.90;;;;;;5095260;28;20020;-72
2021/03/22 12:55:39;;;;;;;19.55;16.83;;;10.80;99.90;;;;;;5093611;28;20071;-71
2021/03/22 12:58:16;;;;;;;23.80;17.02;;;10.80;99.90;;;;;;5095027;28;20024;-71
2021/03/22 13:00:42;;;;;;;22.15;18.70;;;10.90;99.90;;;;;;5094988;28;20255;-71
2021/03/22 13:03:14;;;;;;;18.67;16.63;;;11.10;99.90;;;;;;5091752;28;20020;-71
2021/03/22 13:05:40;;;;;;;19.17;17.25;;;11.00;99.90;;;;;;5094232;28;20091;-70
2021/03/22 13:08:05;;;;;;;16.08;14.48;;;11.00;99.90;;;;;;5093471;28;20563;-72
2021/03/22 13:10:33;;;;;;;20.15;17.25;;;11.10;99.90;;;;;;5093055;28;20134;-72
2021/03/22 13:13:01;;;;;;;18.63;16.83;;;11.10;99.90;;;;;;5094419;28;20507;-71
2021/03/22 13:15:38;;;;;;;17.92;15.95;;;11.00;99.90;;;;;;5093936;28;20035;-71
2021/03/22 13:18:16;;;;;;;29.67;18.48;;;10.90;99.90;;;;;;5094762;28;20031;-71
2021/03/22 13:20:43;;;;;;;21.15;18.80;;;10.80;99.90;;;;;;5093803;28;20029;-71
2021/03/22 13:23:17;;;;;;;21.40;18.27;;;10.80;99.90;;;;;;5094292;28;20085;-71